Aérodrome :
LOGIN :

S'inscrire | Disclaimer

   EN    FR    IT 

 










Légende :    VFR   VFR Marginal   IFR   IFR Intensif   IFR Très Intensif
Visi : 
Plafond : 
>= 8 km
>= 3000ft
5 à 8 km
1000 à 3000 ft
1500m à 5 km
500 à 1000 ft
800 à 1500m
200 à 500 ft
< 800m
< 200 ft
Symboles :   Orages  Brouillard  Fortes neiges  Fortes précipitations  Vent > 20 kt
SIGMETs :   Divers  Orages  Givrage  Turbulence  Onde Orograph.  Cendres Volcan.







- Altitude de l'aérodrome : 87 ft
- Code IATA : FSC
- Voir les cartes d'approche


LFKF - Figari

DERNIER METAR :
  • 181600Z AUTO VRB01KT 9999 FEW076/// BKN130/// ///TCU 27/15 Q1015 TEMPO TSRA SCT035CB BKN050 BKN200

METARs EXPIRÉS :
  • 181530Z AUTO 30005KT 260V040 9999 SCT052/// BKN064/// BKN074/// ///CB 27/16 Q1016 TEMPO TSRA BECMG FEW040
  • 181500Z AUTO 28016KT 9999 TS FEW035/// BKN042/// BKN052/// ///CB 25/15 Q1016 NOSIG
  • 181430Z AUTO VRB06KT 9999 TS FEW045/// SCT058/// ///CB 29/18 Q1016 NOSIG
  • 181400Z AUTO 08007KT 030V180 9999 TS ///CB 32/16 Q1015 NOSIG
  • 181330Z AUTO 08009KT 040V130 9999 TS ///CB 32/17 Q1015 TEMPO 23010KT

TAF TAF LFKF
Valide du 18 à 15h jusqu'au 19 à 15h UTC


181400Z 1815/1915 07010KT 9999 FEW040
TEMPO 1815/1817 23010KT TSRA SCT035CB BKN050 BKN200
TEMPO 1912/1915 FEW040TCU
Pas de NOTAMs connus pour ce terrain.
1 SIGMET publié pour la FIR Marseille (LFMM) :
 
Orages noyés dans la masse
LFMM SIGMET 6 VALID 181520/181700 LFPW
LFMM MARSEILLE FIR/UIR EMBD TS FCST WI N4315 E00545 - N4445 E00530 - N4415 E00700 - N4345 E00700 - N4315 E00615 - N4315 E00545 TOP FL390 STNR NC=



MET'MAP, la Météo Aéronautique d'un coup d'oeil ! - Copyright ORBIFLY Décembre 2007 - Disclaimer

ORBIFLY MET'MAP TEAM :

Programmation & Développement : Alexandra Zaïnal
Conception & Développement : Baudouin d'Aumeries
Co-Programmation & Développement : Marc-Olivier Méhu
Soutien technique & logistique : Manuel Goepfert

Contact : metmap@orbifly.com




SOURCES & CREDITS :

   NOAA